sensor_id;sensor_type;location;lat;lon;timestamp;pressure;altitude;pressure_sealevel;temperature;humidity
17764;BME280;22245;52.832;13.816;2023-09-19T00:03:19;100387.28;;;19.23;84.81
17764;BME280;22245;52.832;13.816;2023-09-19T00:06:43;100394.97;;;19.20;85.01
17764;BME280;22245;52.832;13.816;2023-09-19T00:10:05;100389.31;;;19.15;85.18
17764;BME280;22245;52.832;13.816;2023-09-19T00:13:29;100387.84;;;19.12;85.37
17764;BME280;22245;52.832;13.816;2023-09-19T00:16:51;100376.19;;;19.12;85.44
17764;BME280;22245;52.832;13.816;2023-09-19T00:20:16;100376.41;;;19.10;85.48
17764;BME280;22245;52.832;13.816;2023-09-19T00:23:38;100377.22;;;19.11;85.23
17764;BME280;22245;52.832;13.816;2023-09-19T00:27:00;100379.09;;;19.10;85.15
17764;BME280;22245;52.832;13.816;2023-09-19T00:30:22;100373.25;;;19.06;85.37
17764;BME280;22245;52.832;13.816;2023-09-19T00:33:44;100382.84;;;19.09;85.08
17764;BME280;22245;52.832;13.816;2023-09-19T00:37:07;100365.16;;;19.06;84.66
17764;BME280;22245;52.832;13.816;2023-09-19T00:40:31;100370.75;;;19.05;85.10
17764;BME280;22245;52.832;13.816;2023-09-19T00:43:54;100362.03;;;19.03;84.81
17764;BME280;22245;52.832;13.816;2023-09-19T00:47:15;100374.03;;;19.00;85.33
17764;BME280;22245;52.832;13.816;2023-09-19T00:50:38;100359.91;;;18.98;85.15
17764;BME280;22245;52.832;13.816;2023-09-19T00:54:05;100363.47;;;18.99;84.86
17764;BME280;22245;52.832;13.816;2023-09-19T00:57:27;100357.38;;;18.97;84.92
17764;BME280;22245;52.832;13.816;2023-09-19T01:00:54;100361.78;;;18.98;84.58
17764;BME280;22245;52.832;13.816;2023-09-19T01:04:16;100358.22;;;18.97;84.99
17764;BME280;22245;52.832;13.816;2023-09-19T01:07:38;100367.34;;;18.96;84.84
17764;BME280;22245;52.832;13.816;2023-09-19T01:11:09;100363.59;;;18.97;84.60
17764;BME280;22245;52.832;13.816;2023-09-19T01:14:38;100371.06;;;18.95;84.71
17764;BME280;22245;52.832;13.816;2023-09-19T01:18:11;100372.94;;;18.94;84.78
17764;BME280;22245;52.832;13.816;2023-09-19T01:21:42;100373.94;;;18.93;84.59
17764;BME280;22245;52.832;13.816;2023-09-19T01:25:26;100360.66;;;18.92;84.46
17764;BME280;22245;52.832;13.816;2023-09-19T01:29:06;100369.56;;;18.92;84.44
17764;BME280;22245;52.832;13.816;2023-09-19T01:32:36;100361.88;;;18.89;84.32
17764;BME280;22245;52.832;13.816;2023-09-19T01:35:58;100360.59;;;18.85;84.45
17764;BME280;22245;52.832;13.816;2023-09-19T01:39:20;100356.44;;;18.83;84.38
17764;BME280;22245;52.832;13.816;2023-09-19T01:42:44;100368.69;;;18.85;83.99
17764;BME280;22245;52.832;13.816;2023-09-19T01:46:11;100368.44;;;18.80;84.65
17764;BME280;22245;52.832;13.816;2023-09-19T01:49:42;100365.19;;;18.85;83.97
17764;BME280;22245;52.832;13.816;2023-09-19T01:53:20;100376.38;;;18.82;84.21
17764;BME280;22245;52.832;13.816;2023-09-19T01:56:49;100370.13;;;18.81;84.23
17764;BME280;22245;52.832;13.816;2023-09-19T02:00:13;100377.16;;;18.75;84.01
17764;BME280;22245;52.832;13.816;2023-09-19T02:03:37;100384.22;;;18.76;84.51
17764;BME280;22245;52.832;13.816;2023-09-19T02:07:03;100376.69;;;18.72;84.50
17764;BME280;22245;52.832;13.816;2023-09-19T02:10:26;100381.63;;;18.68;84.70
17764;BME280;22245;52.832;13.816;2023-09-19T02:13:48;100380.16;;;18.65;84.76
17764;BME280;22245;52.832;13.816;2023-09-19T02:17:15;100378.28;;;18.66;84.83
17764;BME280;22245;52.832;13.816;2023-09-19T02:20:37;100378.88;;;18.61;84.98
17764;BME280;22245;52.832;13.816;2023-09-19T02:24:00;100377.78;;;18.56;85.33
17764;BME280;22245;52.832;13.816;2023-09-19T02:27:23;100381.69;;;18.53;85.46
17764;BME280;22245;52.832;13.816;2023-09-19T02:30:47;100399.66;;;18.46;85.66
17764;BME280;22245;52.832;13.816;2023-09-19T02:34:09;100388.84;;;18.39;86.11
17764;BME280;22245;52.832;13.816;2023-09-19T02:37:31;100393.13;;;18.33;85.95
17764;BME280;22245;52.832;13.816;2023-09-19T02:40:54;100395.94;;;18.25;86.57
17764;BME280;22245;52.832;13.816;2023-09-19T02:44:16;100400.69;;;18.23;86.71
17764;BME280;22245;52.832;13.816;2023-09-19T02:47:40;100403.09;;;18.18;87.06
17764;BME280;22245;52.832;13.816;2023-09-19T02:51:02;100404.13;;;18.17;86.98
17764;BME280;22245;52.832;13.816;2023-09-19T02:54:25;100407.19;;;18.14;87.17
17764;BME280;22245;52.832;13.816;2023-09-19T02:57:49;100409.63;;;18.08;87.49
17764;BME280;22245;52.832;13.816;2023-09-19T03:01:12;100413.09;;;18.02;88.12
17764;BME280;22245;52.832;13.816;2023-09-19T03:04:34;100412.41;;;18.00;87.78
17764;BME280;22245;52.832;13.816;2023-09-19T03:07:56;100411.75;;;17.98;88.21
17764;BME280;22245;52.832;13.816;2023-09-19T03:11:21;100421.88;;;17.96;88.50
17764;BME280;22245;52.832;13.816;2023-09-19T03:14:47;100422.28;;;17.93;88.60
17764;BME280;22245;52.832;13.816;2023-09-19T03:18:11;100421.63;;;17.91;88.93
17764;BME280;22245;52.832;13.816;2023-09-19T03:21:34;100422.00;;;17.88;88.77
17764;BME280;22245;52.832;13.816;2023-09-19T03:24:56;100428.22;;;17.88;88.54
17764;BME280;22245;52.832;13.816;2023-09-19T03:28:18;100436.03;;;17.83;89.05
17764;BME280;22245;52.832;13.816;2023-09-19T03:31:42;100436.56;;;17.78;89.07
17764;BME280;22245;52.832;13.816;2023-09-19T03:35:05;100430.53;;;17.76;89.36
17764;BME280;22245;52.832;13.816;2023-09-19T03:38:28;100428.69;;;17.77;89.18
17764;BME280;22245;52.832;13.816;2023-09-19T03:41:50;100430.34;;;17.78;88.76
17764;BME280;22245;52.832;13.816;2023-09-19T03:45:11;100433.88;;;17.78;88.95
17764;BME280;22245;52.832;13.816;2023-09-19T03:48:40;100441.50;;;17.75;88.82
17764;BME280;22245;52.832;13.816;2023-09-19T03:52:03;100442.69;;;17.72;88.35
17764;BME280;22245;52.832;13.816;2023-09-19T03:55:25;100446.69;;;17.76;86.69
17764;BME280;22245;52.832;13.816;2023-09-19T03:58:48;100445.03;;;17.75;86.86
17764;BME280;22245;52.832;13.816;2023-09-19T04:02:11;100441.31;;;17.76;85.79
17764;BME280;22245;52.832;13.816;2023-09-19T04:05:44;100451.25;;;17.76;85.67
17764;BME280;22245;52.832;13.816;2023-09-19T04:09:06;100454.78;;;17.76;85.03
17764;BME280;22245;52.832;13.816;2023-09-19T04:12:31;100448.09;;;17.72;85.13
17764;BME280;22245;52.832;13.816;2023-09-19T04:15:54;100460.53;;;17.73;84.13
17764;BME280;22245;52.832;13.816;2023-09-19T04:19:15;100463.22;;;17.73;84.13
17764;BME280;22245;52.832;13.816;2023-09-19T04:22:39;100466.78;;;17.74;84.09
17764;BME280;22245;52.832;13.816;2023-09-19T04:26:00;100470.84;;;17.70;84.27
17764;BME280;22245;52.832;13.816;2023-09-19T04:29:24;100469.56;;;17.65;83.96
17764;BME280;22245;52.832;13.816;2023-09-19T04:32:46;100473.44;;;17.63;84.12
17764;BME280;22245;52.832;13.816;2023-09-19T04:36:11;100477.00;;;17.63;82.85
17764;BME280;22245;52.832;13.816;2023-09-19T04:39:54;100476.88;;;17.57;83.25
17764;BME280;22245;52.832;13.816;2023-09-19T04:43:15;100487.44;;;17.58;82.42
17764;BME280;22245;52.832;13.816;2023-09-19T04:46:37;100485.97;;;17.56;81.74
17764;BME280;22245;52.832;13.816;2023-09-19T04:49:59;100495.88;;;17.55;81.24
17764;BME280;22245;52.832;13.816;2023-09-19T04:53:21;100492.75;;;17.52;80.93
17764;BME280;22245;52.832;13.816;2023-09-19T04:56:44;100496.47;;;17.50;80.09
17764;BME280;22245;52.832;13.816;2023-09-19T05:00:06;100496.63;;;17.49;79.22
17764;BME280;22245;52.832;13.816;2023-09-19T05:03:32;100500.91;;;17.43;78.69
17764;BME280;22245;52.832;13.816;2023-09-19T05:06:53;100502.75;;;17.43;77.86
17764;BME280;22245;52.832;13.816;2023-09-19T05:10:15;100507.47;;;17.41;78.09
17764;BME280;22245;52.832;13.816;2023-09-19T05:13:40;100514.63;;;17.33;78.08
17764;BME280;22245;52.832;13.816;2023-09-19T05:17:03;100514.97;;;17.30;78.04
17764;BME280;22245;52.832;13.816;2023-09-19T05:20:25;100522.84;;;17.32;77.74
17764;BME280;22245;52.832;13.816;2023-09-19T05:23:52;100530.28;;;17.30;77.42
17764;BME280;22245;52.832;13.816;2023-09-19T05:27:13;100525.78;;;17.22;77.60
17764;BME280;22245;52.832;13.816;2023-09-19T05:30:38;100535.72;;;17.21;77.77
17764;BME280;22245;52.832;13.816;2023-09-19T05:34:00;100533.41;;;17.18;77.66
17764;BME280;22245;52.832;13.816;2023-09-19T05:37:21;100535.44;;;17.16;76.97
17764;BME280;22245;52.832;13.816;2023-09-19T05:40:44;100532.09;;;17.14;76.96
17764;BME280;22245;52.832;13.816;2023-09-19T05:44:06;100552.75;;;17.14;77.27
17764;BME280;22245;52.832;13.816;2023-09-19T05:47:29;100545.25;;;17.09;77.66
17764;BME280;22245;52.832;13.816;2023-09-19T05:50:51;100552.66;;;17.07;77.51
17764;BME280;22245;52.832;13.816;2023-09-19T05:54:13;100560.72;;;17.07;77.64
17764;BME280;22245;52.832;13.816;2023-09-19T05:57:35;100578.56;;;17.08;77.36
17764;BME280;22245;52.832;13.816;2023-09-19T06:00:59;100585.28;;;17.04;77.58
17764;BME280;22245;52.832;13.816;2023-09-19T06:04:22;100595.06;;;17.05;77.87
17764;BME280;22245;52.832;13.816;2023-09-19T06:07:43;100604.97;;;17.04;77.63
17764;BME280;22245;52.832;13.816;2023-09-19T06:11:05;100599.28;;;16.99;77.37
17764;BME280;22245;52.832;13.816;2023-09-19T06:14:29;100605.47;;;17.00;77.32
17764;BME280;22245;52.832;13.816;2023-09-19T06:17:52;100614.72;;;16.97;77.43
17764;BME280;22245;52.832;13.816;2023-09-19T06:21:17;100620.28;;;16.96;77.55
17764;BME280;22245;52.832;13.816;2023-09-19T06:24:38;100630.03;;;16.97;77.42
17764;BME280;22245;52.832;13.816;2023-09-19T06:28:00;100624.50;;;16.98;77.57
17764;BME280;22245;52.832;13.816;2023-09-19T06:31:25;100629.69;;;17.00;77.66
17764;BME280;22245;52.832;13.816;2023-09-19T06:34:51;100638.56;;;17.09;76.70
17764;BME280;22245;52.832;13.816;2023-09-19T06:38:15;100632.84;;;17.12;76.27
17764;BME280;22245;52.832;13.816;2023-09-19T06:41:39;100631.81;;;17.13;76.54
17764;BME280;22245;52.832;13.816;2023-09-19T06:45:04;100630.50;;;17.09;76.81
17764;BME280;22245;52.832;13.816;2023-09-19T06:48:26;100633.84;;;17.11;76.29
17764;BME280;22245;52.832;13.816;2023-09-19T06:51:49;100645.09;;;17.14;76.28
17764;BME280;22245;52.832;13.816;2023-09-19T06:55:12;100640.38;;;17.16;76.47
17764;BME280;22245;52.832;13.816;2023-09-19T06:58:36;100648.09;;;17.19;75.95
17764;BME280;22245;52.832;13.816;2023-09-19T07:01:57;100651.94;;;17.25;76.35
17764;BME280;22245;52.832;13.816;2023-09-19T07:05:20;100654.94;;;17.30;75.92
17764;BME280;22245;52.832;13.816;2023-09-19T07:08:42;100658.41;;;17.39;75.08
17764;BME280;22245;52.832;13.816;2023-09-19T07:12:07;100650.50;;;17.38;74.95
17764;BME280;22245;52.832;13.816;2023-09-19T07:15:31;100655.34;;;17.42;74.86
17764;BME280;22245;52.832;13.816;2023-09-19T07:18:56;100639.53;;;17.47;74.04
17764;BME280;22245;52.832;13.816;2023-09-19T07:22:17;100647.91;;;17.53;74.68
17764;BME280;22245;52.832;13.816;2023-09-19T07:25:39;100661.28;;;17.61;73.73
17764;BME280;22245;52.832;13.816;2023-09-19T07:29:02;100669.31;;;17.69;73.40
17764;BME280;22245;52.832;13.816;2023-09-19T07:32:25;100661.16;;;17.77;72.92
17764;BME280;22245;52.832;13.816;2023-09-19T07:35:47;100660.09;;;17.87;71.59
17764;BME280;22245;52.832;13.816;2023-09-19T07:39:09;100666.41;;;17.94;69.35
17764;BME280;22245;52.832;13.816;2023-09-19T07:42:42;100676.19;;;17.95;68.42
17764;BME280;22245;52.832;13.816;2023-09-19T07:46:06;100691.81;;;18.00;68.65
17764;BME280;22245;52.832;13.816;2023-09-19T07:49:29;100697.69;;;18.03;67.83
17764;BME280;22245;52.832;13.816;2023-09-19T07:52:51;100706.44;;;18.05;67.61
17764;BME280;22245;52.832;13.816;2023-09-19T07:56:12;100710.34;;;18.03;66.87
17764;BME280;22245;52.832;13.816;2023-09-19T07:59:34;100709.69;;;18.01;66.42
17764;BME280;22245;52.832;13.816;2023-09-19T08:02:58;100711.00;;;17.97;67.25
17764;BME280;22245;52.832;13.816;2023-09-19T08:06:27;100720.59;;;17.99;65.91
17764;BME280;22245;52.832;13.816;2023-09-19T08:09:51;100727.38;;;17.95;65.67
17764;BME280;22245;52.832;13.816;2023-09-19T08:13:13;100715.56;;;17.96;65.73
17764;BME280;22245;52.832;13.816;2023-09-19T08:16:35;100720.75;;;17.98;65.52
17764;BME280;22245;52.832;13.816;2023-09-19T08:19:58;100709.69;;;18.01;65.97
17764;BME280;22245;52.832;13.816;2023-09-19T08:23:20;100714.06;;;18.02;63.83
17764;BME280;22245;52.832;13.816;2023-09-19T08:26:41;100727.31;;;18.03;63.33
17764;BME280;22245;52.832;13.816;2023-09-19T08:30:06;100735.75;;;18.00;64.04
17764;BME280;22245;52.832;13.816;2023-09-19T08:33:27;100722.13;;;18.02;62.95
17764;BME280;22245;52.832;13.816;2023-09-19T08:36:52;100739.47;;;17.99;61.86
17764;BME280;22245;52.832;13.816;2023-09-19T08:40:16;100740.19;;;17.93;61.90
17764;BME280;22245;52.832;13.816;2023-09-19T08:43:38;100747.78;;;17.89;61.18
17764;BME280;22245;52.832;13.816;2023-09-19T08:47:06;100735.69;;;17.85;62.26
17764;BME280;22245;52.832;13.816;2023-09-19T08:50:30;100757.44;;;17.84;61.86
17764;BME280;22245;52.832;13.816;2023-09-19T08:54:00;100745.16;;;17.81;62.48
17764;BME280;22245;52.832;13.816;2023-09-19T08:57:23;100739.41;;;17.84;61.23
17764;BME280;22245;52.832;13.816;2023-09-19T09:00:47;100733.84;;;17.86;60.64
17764;BME280;22245;52.832;13.816;2023-09-19T09:04:09;100748.13;;;17.86;62.78
17764;BME280;22245;52.832;13.816;2023-09-19T09:07:33;100744.72;;;17.92;61.33
17764;BME280;22245;52.832;13.816;2023-09-19T09:10:57;100751.63;;;17.95;61.05
17764;BME280;22245;52.832;13.816;2023-09-19T09:14:20;100761.88;;;18.00;61.17
17764;BME280;22245;52.832;13.816;2023-09-19T09:17:46;100769.44;;;18.04;60.69
17764;BME280;22245;52.832;13.816;2023-09-19T09:21:08;100763.88;;;18.06;61.31
17764;BME280;22245;52.832;13.816;2023-09-19T09:24:33;100785.53;;;18.13;59.60
17764;BME280;22245;52.832;13.816;2023-09-19T09:28:01;100780.34;;;18.11;60.62
17764;BME280;22245;52.832;13.816;2023-09-19T09:31:23;100779.97;;;18.14;60.89
17764;BME280;22245;52.832;13.816;2023-09-19T09:34:50;100780.09;;;18.21;60.45
17764;BME280;22245;52.832;13.816;2023-09-19T09:38:13;100779.53;;;18.26;59.92
17764;BME280;22245;52.832;13.816;2023-09-19T09:41:36;100763.13;;;18.35;59.82
17764;BME280;22245;52.832;13.816;2023-09-19T09:45:16;100771.78;;;18.46;60.08
17764;BME280;22245;52.832;13.816;2023-09-19T09:48:38;100774.97;;;18.49;57.97
17764;BME280;22245;52.832;13.816;2023-09-19T09:52:00;100769.38;;;18.51;57.98
17764;BME280;22245;52.832;13.816;2023-09-19T09:55:29;100773.56;;;18.54;57.78
17764;BME280;22245;52.832;13.816;2023-09-19T09:58:51;100761.59;;;18.56;57.56
17764;BME280;22245;52.832;13.816;2023-09-19T10:02:18;100759.84;;;18.63;57.35
17764;BME280;22245;52.832;13.816;2023-09-19T10:05:45;100780.47;;;18.71;55.21
17764;BME280;22245;52.832;13.816;2023-09-19T10:09:08;100771.47;;;18.79;54.25
17764;BME280;22245;52.832;13.816;2023-09-19T10:12:34;100769.25;;;18.83;55.01
17764;BME280;22245;52.832;13.816;2023-09-19T10:15:59;100782.53;;;18.84;55.41
17764;BME280;22245;52.832;13.816;2023-09-19T10:19:30;100770.72;;;18.85;54.03
17764;BME280;22245;52.832;13.816;2023-09-19T10:22:55;100777.25;;;18.91;54.92
17764;BME280;22245;52.832;13.816;2023-09-19T10:26:19;100784.31;;;18.92;52.33
17764;BME280;22245;52.832;13.816;2023-09-19T10:29:44;100784.50;;;18.90;53.59
17764;BME280;22245;52.832;13.816;2023-09-19T10:33:08;100779.47;;;18.87;52.94
17764;BME280;22245;52.832;13.816;2023-09-19T10:36:33;100771.19;;;18.89;53.82
17764;BME280;22245;52.832;13.816;2023-09-19T10:39:56;100772.31;;;18.94;52.32
17764;BME280;22245;52.832;13.816;2023-09-19T10:43:19;100775.13;;;19.01;52.41
17764;BME280;22245;52.832;13.816;2023-09-19T10:46:42;100764.44;;;19.08;52.53
17764;BME280;22245;52.832;13.816;2023-09-19T10:50:06;100762.00;;;19.13;50.87
17764;BME280;22245;52.832;13.816;2023-09-19T10:53:44;100765.34;;;19.15;51.40
17764;BME280;22245;52.832;13.816;2023-09-19T10:57:09;100780.72;;;19.15;50.88
17764;BME280;22245;52.832;13.816;2023-09-19T11:00:30;100778.69;;;19.17;50.72
17764;BME280;22245;52.832;13.816;2023-09-19T11:04:22;100781.56;;;19.15;51.25
17764;BME280;22245;52.832;13.816;2023-09-19T11:07:57;100781.00;;;19.20;50.10
17764;BME280;22245;52.832;13.816;2023-09-19T11:11:42;100776.63;;;19.19;50.43
17764;BME280;22245;52.832;13.816;2023-09-19T11:15:07;100777.06;;;19.22;51.37
17764;BME280;22245;52.832;13.816;2023-09-19T11:18:55;100772.53;;;19.23;51.36
17764;BME280;22245;52.832;13.816;2023-09-19T11:22:17;100782.09;;;19.26;50.52
17764;BME280;22245;52.832;13.816;2023-09-19T11:25:42;100784.25;;;19.30;51.05
17764;BME280;22245;52.832;13.816;2023-09-19T11:29:27;100782.66;;;19.36;48.49
17764;BME280;22245;52.832;13.816;2023-09-19T11:33:17;100783.97;;;19.40;49.07
17764;BME280;22245;52.832;13.816;2023-09-19T11:36:41;100781.91;;;19.42;49.38
17764;BME280;22245;52.832;13.816;2023-09-19T11:40:05;100777.81;;;19.46;49.02
17764;BME280;22245;52.832;13.816;2023-09-19T11:43:36;100778.19;;;19.43;49.24
17764;BME280;22245;52.832;13.816;2023-09-19T11:47:04;100791.69;;;19.43;48.02
17764;BME280;22245;52.832;13.816;2023-09-19T11:50:27;100790.00;;;19.42;49.21
17764;BME280;22245;52.832;13.816;2023-09-19T11:53:51;100783.38;;;19.45;49.65
17764;BME280;22245;52.832;13.816;2023-09-19T11:57:20;100785.69;;;19.48;48.95
17764;BME280;22245;52.832;13.816;2023-09-19T12:00:43;100786.81;;;19.53;48.32
17764;BME280;22245;52.832;13.816;2023-09-19T12:04:08;100783.09;;;19.55;49.79
17764;BME280;22245;52.832;13.816;2023-09-19T12:07:42;100777.56;;;19.63;49.08
17764;BME280;22245;52.832;13.816;2023-09-19T12:11:04;100782.59;;;19.66;48.32
17764;BME280;22245;52.832;13.816;2023-09-19T12:14:28;100787.59;;;19.69;48.30
17764;BME280;22245;52.832;13.816;2023-09-19T12:17:51;100794.31;;;19.73;48.49
17764;BME280;22245;52.832;13.816;2023-09-19T12:21:29;100795.22;;;19.80;48.46
17764;BME280;22245;52.832;13.816;2023-09-19T12:24:52;100791.50;;;19.81;48.73
17764;BME280;22245;52.832;13.816;2023-09-19T12:28:15;100798.66;;;19.89;48.91
17764;BME280;22245;52.832;13.816;2023-09-19T12:31:37;100801.66;;;19.94;49.09
17764;BME280;22245;52.832;13.816;2023-09-19T12:35:09;100795.41;;;19.94;46.95
17764;BME280;22245;52.832;13.816;2023-09-19T12:38:32;100806.47;;;19.84;47.67
17764;BME280;22245;52.832;13.816;2023-09-19T12:41:55;100803.91;;;19.76;48.29
17764;BME280;22245;52.832;13.816;2023-09-19T12:45:17;100800.16;;;19.77;47.76
17764;BME280;22245;52.832;13.816;2023-09-19T12:48:39;100803.13;;;19.82;46.90
17764;BME280;22245;52.832;13.816;2023-09-19T12:52:04;100808.34;;;19.84;47.86
17764;BME280;22245;52.832;13.816;2023-09-19T12:55:29;100799.88;;;19.87;47.82
17764;BME280;22245;52.832;13.816;2023-09-19T12:58:54;100806.59;;;19.91;47.53
17764;BME280;22245;52.832;13.816;2023-09-19T13:02:16;100811.22;;;19.97;47.99
17764;BME280;22245;52.832;13.816;2023-09-19T13:05:48;100808.13;;;20.00;45.82
17764;BME280;22245;52.832;13.816;2023-09-19T13:09:10;100803.13;;;19.97;46.71
17764;BME280;22245;52.832;13.816;2023-09-19T13:12:36;100804.03;;;20.04;46.54
17764;BME280;22245;52.832;13.816;2023-09-19T13:16:01;100796.75;;;20.05;46.76
17764;BME280;22245;52.832;13.816;2023-09-19T13:19:37;100810.75;;;20.08;47.24
17764;BME280;22245;52.832;13.816;2023-09-19T13:22:59;100810.06;;;20.06;44.29
17764;BME280;22245;52.832;13.816;2023-09-19T13:26:28;100807.75;;;20.03;45.38
17764;BME280;22245;52.832;13.816;2023-09-19T13:29:51;100809.63;;;20.03;44.92
17764;BME280;22245;52.832;13.816;2023-09-19T13:33:12;100810.06;;;20.06;44.24
17764;BME280;22245;52.832;13.816;2023-09-19T13:36:41;100810.28;;;20.05;44.53
17764;BME280;22245;52.832;13.816;2023-09-19T13:40:04;100799.63;;;20.03;44.86
17764;BME280;22245;52.832;13.816;2023-09-19T13:43:26;100809.38;;;19.98;44.28
17764;BME280;22245;52.832;13.816;2023-09-19T13:46:50;100801.00;;;19.92;44.51
17764;BME280;22245;52.832;13.816;2023-09-19T13:50:15;100816.19;;;19.93;45.63
17764;BME280;22245;52.832;13.816;2023-09-19T13:53:37;100812.00;;;19.91;45.71
17764;BME280;22245;52.832;13.816;2023-09-19T13:56:59;100813.66;;;19.92;44.99
17764;BME280;22245;52.832;13.816;2023-09-19T14:00:21;100816.25;;;19.85;44.47
17764;BME280;22245;52.832;13.816;2023-09-19T14:03:44;100814.72;;;19.76;45.25
17764;BME280;22245;52.832;13.816;2023-09-19T14:07:07;100817.63;;;19.74;45.06
17764;BME280;22245;52.832;13.816;2023-09-19T14:10:30;100811.38;;;19.74;45.55
17764;BME280;22245;52.832;13.816;2023-09-19T14:13:52;100809.13;;;19.77;44.92
17764;BME280;22245;52.832;13.816;2023-09-19T14:17:16;100807.06;;;19.79;45.39
17764;BME280;22245;52.832;13.816;2023-09-19T14:20:39;100815.19;;;19.79;45.32
17764;BME280;22245;52.832;13.816;2023-09-19T14:24:02;100813.03;;;19.75;46.12
17764;BME280;22245;52.832;13.816;2023-09-19T14:27:23;100810.53;;;19.73;46.21
17764;BME280;22245;52.832;13.816;2023-09-19T14:30:45;100804.94;;;19.75;46.41
17764;BME280;22245;52.832;13.816;2023-09-19T14:34:09;100801.84;;;19.78;46.63
17764;BME280;22245;52.832;13.816;2023-09-19T14:37:32;100805.66;;;19.84;46.61
17764;BME280;22245;52.832;13.816;2023-09-19T14:40:59;100807.13;;;19.86;46.75
17764;BME280;22245;52.832;13.816;2023-09-19T14:44:21;100799.47;;;19.90;46.21
17764;BME280;22245;52.832;13.816;2023-09-19T14:47:43;100800.81;;;19.94;46.79
17764;BME280;22245;52.832;13.816;2023-09-19T14:51:05;100806.03;;;19.95;46.01
17764;BME280;22245;52.832;13.816;2023-09-19T14:54:30;100808.34;;;19.99;46.33
17764;BME280;22245;52.832;13.816;2023-09-19T14:57:52;100810.66;;;20.02;45.99
17764;BME280;22245;52.832;13.816;2023-09-19T15:01:16;100806.69;;;19.98;45.18
17764;BME280;22245;52.832;13.816;2023-09-19T15:04:38;100810.28;;;19.90;45.38
17764;BME280;22245;52.832;13.816;2023-09-19T15:08:01;100804.06;;;19.89;45.56
17764;BME280;22245;52.832;13.816;2023-09-19T15:11:25;100796.63;;;19.91;45.96
17764;BME280;22245;52.832;13.816;2023-09-19T15:14:47;100794.63;;;20.00;46.20
17764;BME280;22245;52.832;13.816;2023-09-19T15:18:08;100793.34;;;20.18;46.21
17764;BME280;22245;52.832;13.816;2023-09-19T15:21:32;100792.34;;;20.47;44.75
17764;BME280;22245;52.832;13.816;2023-09-19T15:24:54;100795.44;;;20.66;44.53
17764;BME280;22245;52.832;13.816;2023-09-19T15:28:17;100791.59;;;20.82;44.39
17764;BME280;22245;52.832;13.816;2023-09-19T15:31:42;100788.63;;;21.05;44.04
17764;BME280;22245;52.832;13.816;2023-09-19T15:35:04;100781.47;;;21.39;43.38
17764;BME280;22245;52.832;13.816;2023-09-19T15:38:28;100779.28;;;21.63;42.91
17764;BME280;22245;52.832;13.816;2023-09-19T15:41:49;100780.84;;;21.93;42.37
17764;BME280;22245;52.832;13.816;2023-09-19T15:45:12;100783.59;;;22.06;41.81
17764;BME280;22245;52.832;13.816;2023-09-19T15:48:35;100791.31;;;22.23;41.78
17764;BME280;22245;52.832;13.816;2023-09-19T15:51:57;100795.09;;;22.35;41.81
17764;BME280;22245;52.832;13.816;2023-09-19T15:55:18;100794.44;;;22.26;41.63
17764;BME280;22245;52.832;13.816;2023-09-19T15:58:40;100795.47;;;22.19;41.83
17764;BME280;22245;52.832;13.816;2023-09-19T16:02:03;100792.97;;;22.10;42.08
17764;BME280;22245;52.832;13.816;2023-09-19T16:05:25;100805.69;;;22.03;42.49
17764;BME280;22245;52.832;13.816;2023-09-19T16:08:48;100796.69;;;21.89;42.51
17764;BME280;22245;52.832;13.816;2023-09-19T16:12:09;100794.97;;;21.68;42.91
17764;BME280;22245;52.832;13.816;2023-09-19T16:15:31;100795.38;;;21.65;43.33
17764;BME280;22245;52.832;13.816;2023-09-19T16:18:56;100802.06;;;21.69;43.21
17764;BME280;22245;52.832;13.816;2023-09-19T16:22:22;100797.13;;;21.44;43.04
17764;BME280;22245;52.832;13.816;2023-09-19T16:25:44;100801.38;;;21.18;43.84
17764;BME280;22245;52.832;13.816;2023-09-19T16:29:06;100793.38;;;20.96;45.07
17764;BME280;22245;52.832;13.816;2023-09-19T16:32:30;100799.84;;;20.74;45.38
17764;BME280;22245;52.832;13.816;2023-09-19T16:35:55;100816.56;;;20.56;46.15
17764;BME280;22245;52.832;13.816;2023-09-19T16:39:17;100812.66;;;20.36;47.31
17764;BME280;22245;52.832;13.816;2023-09-19T16:42:38;100816.91;;;20.24;46.78
17764;BME280;22245;52.832;13.816;2023-09-19T16:46:03;100818.47;;;20.12;47.19
17764;BME280;22245;52.832;13.816;2023-09-19T16:49:26;100818.31;;;19.98;47.91
17764;BME280;22245;52.832;13.816;2023-09-19T16:52:50;100812.53;;;19.86;48.52
17764;BME280;22245;52.832;13.816;2023-09-19T16:56:13;100813.03;;;19.75;49.42
17764;BME280;22245;52.832;13.816;2023-09-19T16:59:36;100801.44;;;19.59;50.63
17764;BME280;22245;52.832;13.816;2023-09-19T17:02:58;100800.81;;;19.42;50.86
17764;BME280;22245;52.832;13.816;2023-09-19T17:06:21;100802.88;;;19.25;50.70
17764;BME280;22245;52.832;13.816;2023-09-19T17:09:46;100806.06;;;19.14;51.37
17764;BME280;22245;52.832;13.816;2023-09-19T17:13:07;100805.84;;;19.00;52.51
17764;BME280;22245;52.832;13.816;2023-09-19T17:16:29;100802.06;;;18.86;52.70
17764;BME280;22245;52.832;13.816;2023-09-19T17:19:51;100798.16;;;18.74;53.19
17764;BME280;22245;52.832;13.816;2023-09-19T17:23:12;100796.94;;;18.61;53.74
17764;BME280;22245;52.832;13.816;2023-09-19T17:26:35;100805.09;;;18.53;53.07
17764;BME280;22245;52.832;13.816;2023-09-19T17:29:57;100804.50;;;18.43;53.92
17764;BME280;22245;52.832;13.816;2023-09-19T17:33:18;100807.28;;;18.34;54.52
17764;BME280;22245;52.832;13.816;2023-09-19T17:36:40;100801.31;;;18.24;54.42